createdAt,value
2019-04-29T00:02:22.331Z,3.30
2019-04-29T00:04:49.715Z,3.42
2019-04-29T00:07:17.652Z,3.35
2019-04-29T00:09:45.117Z,3.15
2019-04-29T00:12:12.946Z,3.08
2019-04-29T00:14:42.227Z,3.10
2019-04-29T00:17:25.904Z,3.33
2019-04-29T00:20:12.757Z,3.50
2019-04-29T00:22:40.692Z,3.30
2019-04-29T00:25:08.146Z,3.20
2019-04-29T00:27:37.550Z,3.10
2019-04-29T00:30:07.896Z,3.42
2019-04-29T00:32:35.645Z,3.10
2019-04-29T00:35:03.960Z,3.02
2019-04-29T00:37:54.013Z,3.00
2019-04-29T00:40:49.935Z,3.25
2019-04-29T00:43:38.489Z,3.20
2019-04-29T00:46:08.813Z,2.60
2019-04-29T00:48:36.571Z,2.80
2019-04-29T00:51:04.051Z,3.50
2019-04-29T00:53:31.817Z,2.33
2019-04-29T00:56:01.639Z,2.65
2019-04-29T00:58:29.156Z,2.75
2019-04-29T01:00:56.662Z,2.80
2019-04-29T01:03:24.163Z,2.58
2019-04-29T01:05:51.646Z,2.45
2019-04-29T01:08:19.135Z,2.20
2019-04-29T01:10:46.645Z,2.87
2019-04-29T01:13:14.138Z,2.75
2019-04-29T01:15:41.549Z,2.40
2019-04-29T01:18:09.118Z,3.00
2019-04-29T01:20:38.981Z,2.40
2019-04-29T01:23:07.029Z,2.17
2019-04-29T01:25:34.490Z,2.67
2019-04-29T01:28:15.494Z,2.30
2019-04-29T01:30:53.921Z,2.20
2019-04-29T01:33:21.739Z,2.22
2019-04-29T01:35:50.916Z,2.45
2019-04-29T01:38:19.544Z,2.55
2019-04-29T01:40:53.862Z,1.95
2019-04-29T01:43:21.616Z,2.30
2019-04-29T01:45:49.098Z,2.20
2019-04-29T01:48:17.210Z,2.20
2019-04-29T01:50:44.719Z,2.45
2019-04-29T01:53:12.102Z,2.25
2019-04-29T01:55:40.020Z,1.90
2019-04-29T01:58:07.469Z,2.90
2019-04-29T02:00:35.091Z,2.22
2019-04-29T02:03:02.552Z,2.65
2019-04-29T02:05:29.992Z,2.75
2019-04-29T02:07:57.356Z,2.50
2019-04-29T02:10:32.958Z,3.08
2019-04-29T02:13:00.385Z,3.30
2019-04-29T02:15:27.780Z,2.42
2019-04-29T02:17:55.212Z,3.00
2019-04-29T02:20:22.637Z,2.85
2019-04-29T02:23:09.601Z,3.45
2019-04-29T02:25:39.867Z,3.00
2019-04-29T02:28:07.256Z,3.20
2019-04-29T02:30:43.996Z,3.40
2019-04-29T02:33:11.571Z,3.90
2019-04-29T02:35:39.392Z,3.90
2019-04-29T02:38:09.185Z,3.05
2019-04-29T02:40:47.122Z,3.98
2019-04-29T02:43:19.413Z,3.87
2019-04-29T02:45:46.856Z,3.40
2019-04-29T02:48:14.194Z,4.20
2019-04-29T02:50:41.685Z,3.50
2019-04-29T02:53:09.253Z,4.17
2019-04-29T02:55:41.253Z,4.53
2019-04-29T02:58:14.634Z,4.90
2019-04-29T03:01:01.652Z,3.67
2019-04-29T03:03:37.411Z,3.40
2019-04-29T03:06:04.843Z,3.40
2019-04-29T03:08:32.387Z,3.75
2019-04-29T03:10:59.743Z,3.25
2019-04-29T03:13:27.127Z,3.70
2019-04-29T03:15:54.744Z,3.58
2019-04-29T03:18:24.759Z,3.60
2019-04-29T03:21:17.587Z,3.95
2019-04-29T03:23:45.071Z,3.92
2019-04-29T03:26:12.475Z,4.25
2019-04-29T03:28:40.065Z,4.90
2019-04-29T03:31:07.544Z,4.62
2019-04-29T03:33:35.040Z,4.00
2019-04-29T03:36:02.640Z,3.60
2019-04-29T03:38:30.121Z,4.30
2019-04-29T03:40:57.614Z,5.35
2019-04-29T03:43:25.066Z,4.72
2019-04-29T03:45:52.529Z,5.10
2019-04-29T03:48:20.040Z,5.15
2019-04-29T03:50:47.537Z,4.90
2019-04-29T03:53:15.111Z,5.53
2019-04-29T03:55:42.617Z,5.47
2019-04-29T03:58:10.054Z,5.35
2019-04-29T04:00:37.563Z,5.62
2019-04-29T04:03:21.735Z,6.00
2019-04-29T04:06:08.646Z,5.60
2019-04-29T04:08:38.814Z,6.37
2019-04-29T04:11:06.339Z,6.72
2019-04-29T04:13:33.743Z,5.97
2019-04-29T04:16:01.546Z,6.30
2019-04-29T04:18:30.802Z,6.80
2019-04-29T04:20:58.331Z,6.08
2019-04-29T04:23:25.825Z,6.40
2019-04-29T04:25:53.310Z,6.35
2019-04-29T04:28:20.855Z,6.42
2019-04-29T04:30:48.396Z,6.87
2019-04-29T04:33:15.891Z,6.83
2019-04-29T04:35:43.428Z,7.60
2019-04-29T04:38:11.006Z,6.60
2019-04-29T04:40:42.983Z,7.15
2019-04-29T04:43:10.451Z,6.85
2019-04-29T04:45:38.803Z,5.70
2019-04-29T04:48:06.246Z,6.22
2019-04-29T04:50:33.741Z,7.17
2019-04-29T04:53:01.422Z,7.10
2019-04-29T04:55:31.679Z,6.80
2019-04-29T04:57:59.209Z,6.55
2019-04-29T05:00:28.356Z,6.80
2019-04-29T05:02:55.862Z,6.75
2019-04-29T05:05:23.312Z,7.10
2019-04-29T05:07:50.782Z,6.62
2019-04-29T05:10:18.212Z,6.87
2019-04-29T05:12:45.728Z,7.00
2019-04-29T05:15:13.499Z,6.50
2019-04-29T05:17:40.909Z,6.65
2019-04-29T05:20:08.831Z,6.05
2019-04-29T05:22:36.347Z,6.15
2019-04-29T05:25:04.510Z,6.15
2019-04-29T05:27:31.974Z,6.42
2019-04-29T05:29:59.463Z,5.72
2019-04-29T05:32:26.970Z,6.20
2019-04-29T05:34:56.699Z,6.47
2019-04-29T05:37:39.658Z,5.40
2019-04-29T05:40:07.231Z,4.97
2019-04-29T05:42:34.751Z,5.67
2019-04-29T05:45:19.829Z,5.83
2019-04-29T05:47:56.787Z,6.30
2019-04-29T05:50:28.469Z,6.33
2019-04-29T05:53:00.848Z,5.12
2019-04-29T05:55:28.322Z,5.08
2019-04-29T05:58:10.463Z,6.30
2019-04-29T06:00:38.962Z,5.42
2019-04-29T06:03:06.375Z,6.92
2019-04-29T06:05:33.839Z,5.92
2019-04-29T06:08:02.824Z,5.50
2019-04-29T06:10:30.452Z,5.45
2019-04-29T06:12:57.739Z,6.20
2019-04-29T06:15:25.099Z,5.50
2019-04-29T06:17:52.428Z,6.08
2019-04-29T06:20:22.793Z,5.55
2019-04-29T06:22:49.262Z,6.35
2019-04-29T06:25:16.717Z,5.20
2019-04-29T06:27:46.006Z,5.80
2019-04-29T06:30:14.790Z,6.78
2019-04-29T06:32:42.333Z,5.83
2019-04-29T06:35:10.558Z,5.83
2019-04-29T06:37:39.516Z,6.60
2019-04-29T06:40:07.154Z,6.53
2019-04-29T06:42:34.546Z,5.45
2019-04-29T06:45:02.058Z,6.30
2019-04-29T06:47:29.471Z,5.25
2019-04-29T06:49:56.932Z,5.35
2019-04-29T06:52:24.524Z,5.87
2019-04-29T06:54:51.943Z,5.92
2019-04-29T06:57:19.481Z,5.22
2019-04-29T06:59:47.572Z,5.40
2019-04-29T07:02:16.192Z,5.05
2019-04-29T07:04:43.769Z,5.75
2019-04-29T07:07:11.237Z,5.60
2019-04-29T07:09:38.739Z,5.15
2019-04-29T07:12:08.116Z,5.97
2019-04-29T07:14:38.450Z,5.95
2019-04-29T07:17:05.907Z,6.17
2019-04-29T07:19:34.620Z,5.53
2019-04-29T07:22:02.129Z,5.10
2019-04-29T07:24:29.663Z,5.00
2019-04-29T07:26:57.867Z,5.50
2019-04-29T07:29:30.711Z,4.40
2019-04-29T07:31:55.854Z,7.33
2019-04-29T07:34:23.355Z,5.10
2019-04-29T07:36:53.194Z,5.60
2019-04-29T07:39:20.125Z,5.58
2019-04-29T07:41:49.563Z,4.67
2019-04-29T07:44:18.382Z,5.37
2019-04-29T07:46:56.683Z,5.60
2019-04-29T07:49:20.823Z,4.95
2019-04-29T07:51:48.303Z,4.72
2019-04-29T07:54:17.560Z,4.85
2019-04-29T07:56:45.458Z,5.85
2019-04-29T07:59:12.968Z,6.08
2019-04-29T08:01:40.367Z,4.83
2019-04-29T08:04:07.778Z,6.30
2019-04-29T08:06:38.127Z,4.85
2019-04-29T08:09:08.013Z,3.87
2019-04-29T08:11:36.319Z,3.98
2019-04-29T08:14:04.087Z,5.45
2019-04-29T08:16:31.501Z,4.95
2019-04-29T08:18:58.919Z,4.78
2019-04-29T08:21:26.402Z,4.65
2019-04-29T08:23:53.918Z,5.67
2019-04-29T08:26:21.449Z,4.45
2019-04-29T08:28:52.877Z,4.37
2019-04-29T08:31:21.108Z,4.40
2019-04-29T08:33:48.502Z,4.15
2019-04-29T08:36:19.029Z,3.95
2019-04-29T08:38:46.403Z,4.70
2019-04-29T08:41:15.030Z,5.62
2019-04-29T08:44:16.476Z,4.67
2019-04-29T08:46:44.373Z,4.30
2019-04-29T08:49:14.740Z,5.37
2019-04-29T08:51:41.258Z,4.37
2019-04-29T08:54:08.718Z,4.25
2019-04-29T08:56:36.651Z,4.53
2019-04-29T08:59:04.242Z,4.43
2019-04-29T09:01:34.194Z,3.60
2019-04-29T09:04:01.111Z,4.20
2019-04-29T09:06:32.558Z,4.30
2019-04-29T09:08:59.726Z,4.50
2019-04-29T09:11:27.209Z,4.03
2019-04-29T09:13:54.725Z,3.67
2019-04-29T09:16:22.151Z,4.10
2019-04-29T09:18:49.518Z,3.45
2019-04-29T09:21:16.867Z,3.95
2019-04-29T09:23:46.135Z,3.15
2019-04-29T09:26:29.215Z,3.20
2019-04-29T09:28:59.832Z,3.67
2019-04-29T09:31:26.171Z,4.53
2019-04-29T09:34:06.085Z,3.13
2019-04-29T09:36:22.931Z,3.70
2019-04-29T09:38:50.687Z,3.40
2019-04-29T09:41:37.583Z,3.30
2019-04-29T09:44:24.505Z,2.90
2019-04-29T09:46:52.178Z,3.33
2019-04-29T09:49:19.543Z,2.13
2019-04-29T09:51:47.021Z,2.50
2019-04-29T09:54:16.285Z,2.20
2019-04-29T09:56:46.566Z,2.00
2019-04-29T09:59:39.575Z,2.37
2019-04-29T10:02:31.456Z,2.60
2019-04-29T10:05:10.380Z,3.30
2019-04-29T10:07:37.879Z,2.70
2019-04-29T10:10:06.899Z,3.00
2019-04-29T10:12:34.629Z,3.60
2019-04-29T10:15:02.525Z,3.27
2019-04-29T10:17:50.825Z,3.57
2019-04-29T10:20:28.330Z,3.02
2019-04-29T10:22:55.734Z,3.90
2019-04-29T10:25:23.196Z,3.60
2019-04-29T10:27:50.752Z,3.35
2019-04-29T10:30:20.902Z,3.23
2019-04-29T10:32:48.439Z,3.85
2019-04-29T10:35:19.083Z,3.85
2019-04-29T10:37:46.618Z,3.87
2019-04-29T10:40:31.225Z,3.77
2019-04-29T10:43:11.312Z,3.20
2019-04-29T10:46:05.179Z,3.53
2019-04-29T10:48:38.825Z,3.17
2019-04-29T10:51:08.339Z,3.43
2019-04-29T10:53:36.003Z,3.10
2019-04-29T10:56:05.753Z,2.80
2019-04-29T10:58:35.728Z,3.53
2019-04-29T11:02:00.998Z,3.03
2019-04-29T11:04:23.781Z,2.70
2019-04-29T11:06:51.273Z,3.43
2019-04-29T11:09:32.805Z,2.33
2019-04-29T11:12:01.727Z,2.90
2019-04-29T11:14:33.130Z,3.20
2019-04-29T11:16:58.671Z,2.67
2019-04-29T11:19:26.153Z,3.37
2019-04-29T11:21:54.135Z,3.03
2019-04-29T11:24:35.398Z,3.13
2019-04-29T11:27:13.129Z,3.40
2019-04-29T11:29:40.788Z,2.87
2019-04-29T11:32:14.877Z,3.20
2019-04-29T11:34:58.374Z,3.23
2019-04-29T11:37:25.891Z,3.37
2019-04-29T11:39:53.433Z,3.47
2019-04-29T11:42:21.394Z,3.80
2019-04-29T11:44:48.899Z,2.60
2019-04-29T11:47:16.382Z,3.00
2019-04-29T11:49:52.976Z,2.90
2019-04-29T11:52:23.780Z,4.17
2019-04-29T11:54:49.802Z,3.27
2019-04-29T11:57:40.136Z,2.90
2019-04-29T12:00:15.859Z,3.37
2019-04-29T12:02:50.052Z,2.70
2019-04-29T12:05:31.430Z,3.70
2019-04-29T12:08:11.157Z,3.20
2019-04-29T12:10:32.852Z,2.60
2019-04-29T12:13:02.203Z,3.20
2019-04-29T12:15:49.225Z,3.10
2019-04-29T12:18:23.779Z,3.60
2019-04-29T12:21:10.831Z,4.00
2019-04-29T12:23:38.350Z,3.23
2019-04-29T12:26:06.295Z,2.97
2019-04-29T12:28:37.894Z,3.60
2019-04-29T12:31:10.290Z,3.10
2019-04-29T12:33:47.148Z,3.97
2019-04-29T12:36:16.687Z,3.87
2019-04-29T12:39:03.627Z,3.53
2019-04-29T12:41:55.760Z,3.40
2019-04-29T12:44:35.467Z,3.30
2019-04-29T12:47:26.609Z,2.60
2019-04-29T12:49:53.670Z,2.93
2019-04-29T12:52:21.296Z,2.67
2019-04-29T12:54:48.912Z,3.50
2019-04-29T12:57:18.789Z,2.13
2019-04-29T12:59:46.156Z,2.50
2019-04-29T13:02:39.438Z,3.13
2019-04-29T13:05:35.453Z,2.70
2019-04-29T13:08:15.842Z,2.40
2019-04-29T13:10:54.214Z,3.10
2019-04-29T13:13:22.263Z,2.70
2019-04-29T13:16:20.321Z,2.70
2019-04-29T13:19:10.836Z,2.73
2019-04-29T13:21:25.919Z,2.50
2019-04-29T13:24:05.316Z,3.03
2019-04-29T13:26:28.101Z,3.10
2019-04-29T13:29:00.160Z,3.13
2019-04-29T13:31:37.021Z,2.90
2019-04-29T13:33:52.996Z,2.83
2019-04-29T13:36:26.104Z,3.50
2019-04-29T13:38:49.812Z,3.10
2019-04-29T13:41:23.688Z,3.30
2019-04-29T13:43:46.698Z,3.20
2019-04-29T13:46:46.148Z,2.60
2019-04-29T13:49:26.233Z,2.70
2019-04-29T13:51:54.356Z,2.80
2019-04-29T13:54:21.881Z,2.20
2019-04-29T13:56:56.064Z,2.40
2019-04-29T13:59:25.789Z,2.97
2019-04-29T14:02:11.555Z,2.07
2019-04-29T14:04:46.148Z,2.87
2019-04-29T14:07:18.169Z,1.97
2019-04-29T14:09:47.873Z,2.57
2019-04-29T14:12:47.032Z,1.50
2019-04-29T14:14:47.495Z,1.80
2019-04-29T14:17:26.044Z,1.70
2019-04-29T14:19:46.569Z,2.40
2019-04-29T14:22:22.399Z,2.17
2019-04-29T14:24:46.991Z,2.20
2019-04-29T14:27:24.682Z,2.40
2019-04-29T14:29:46.318Z,1.77
2019-04-29T14:32:18.244Z,1.50
2019-04-29T14:35:00.974Z,2.20
2019-04-29T14:37:28.476Z,2.23
2019-04-29T14:39:55.951Z,2.03
2019-04-29T14:42:38.611Z,1.80
2019-04-29T14:45:25.536Z,2.07
2019-04-29T14:48:18.252Z,2.30
2019-04-29T14:50:49.501Z,2.07
2019-04-29T14:53:19.509Z,1.93
2019-04-29T14:55:47.277Z,2.00
2019-04-29T14:58:14.841Z,2.50
2019-04-29T15:01:08.612Z,2.37
2019-04-29T15:04:18.300Z,2.50
2019-04-29T15:06:40.416Z,2.07
2019-04-29T15:09:16.692Z,2.40
2019-04-29T15:11:52.540Z,1.90
2019-04-29T15:14:54.630Z,2.10
2019-04-29T15:17:44.809Z,1.93
2019-04-29T15:20:32.095Z,2.27
2019-04-29T15:22:59.906Z,3.70
2019-04-29T15:25:27.786Z,2.37
2019-04-29T15:27:55.289Z,2.70
2019-04-29T15:30:22.876Z,3.12
2019-04-29T15:32:53.165Z,3.10
2019-04-29T15:35:24.350Z,2.93
2019-04-29T15:37:50.270Z,2.58
2019-04-29T15:40:20.769Z,2.90
2019-04-29T15:42:51.171Z,3.40
2019-04-29T15:45:17.754Z,3.50
2019-04-29T15:47:47.073Z,3.35
2019-04-29T15:50:19.505Z,3.95
2019-04-29T15:52:45.886Z,3.70
2019-04-29T15:55:13.414Z,3.80
2019-04-29T15:57:45.366Z,3.22
2019-04-29T16:00:21.289Z,3.90
2019-04-29T16:02:42.808Z,3.55
2019-04-29T16:05:21.472Z,2.75
2019-04-29T16:08:04.430Z,3.33
2019-04-29T16:11:03.727Z,3.15
2019-04-29T16:13:31.671Z,3.00
2019-04-29T16:16:00.960Z,2.77
2019-04-29T16:18:28.851Z,3.08
2019-04-29T16:20:56.383Z,3.30
2019-04-29T16:23:23.884Z,2.60
2019-04-29T16:25:52.273Z,3.20
2019-04-29T16:28:24.410Z,3.40
2019-04-29T16:30:49.992Z,3.00
2019-04-29T16:33:17.555Z,3.00
2019-04-29T16:35:45.158Z,3.00
2019-04-29T16:38:13.828Z,3.15
2019-04-29T16:40:45.925Z,3.25
2019-04-29T16:43:32.901Z,3.15
2019-04-29T16:46:35.448Z,2.95
2019-04-29T16:48:55.479Z,2.33
2019-04-29T16:51:22.961Z,3.12
2019-04-29T16:53:50.641Z,2.70
2019-04-29T16:56:18.402Z,3.17
2019-04-29T16:58:46.074Z,3.27
2019-04-29T17:01:13.663Z,3.62
2019-04-29T17:03:41.223Z,3.27
2019-04-29T17:06:08.786Z,4.00
2019-04-29T17:08:50.601Z,4.20
2019-04-29T17:11:23.173Z,5.05
2019-04-29T17:13:53.876Z,3.80
2019-04-29T17:16:23.261Z,4.35
2019-04-29T17:18:50.772Z,5.60
2019-04-29T17:21:18.814Z,4.30
2019-04-29T17:23:46.355Z,3.80
2019-04-29T17:26:14.898Z,4.37
2019-04-29T17:28:49.285Z,4.25
2019-04-29T17:31:42.755Z,4.92
2019-04-29T17:34:29.390Z,5.28
2019-04-29T17:36:46.954Z,4.95
2019-04-29T17:39:14.932Z,4.85
2019-04-29T17:41:42.473Z,5.85
2019-04-29T17:44:28.038Z,5.65
2019-04-29T17:47:24.165Z,5.40
2019-04-29T17:50:11.146Z,5.55
2019-04-29T17:52:38.878Z,5.30
2019-04-29T17:55:18.428Z,4.92
2019-04-29T17:57:54.877Z,4.40
2019-04-29T18:00:43.869Z,5.33
2019-04-29T18:03:42.814Z,5.97
2019-04-29T18:06:18.797Z,5.62
2019-04-29T18:08:58.267Z,4.45
2019-04-29T18:11:25.860Z,5.10
2019-04-29T18:13:56.918Z,5.28
2019-04-29T18:16:28.690Z,5.58
2019-04-29T18:19:02.798Z,5.20
2019-04-29T18:21:48.656Z,4.20
2019-04-29T18:24:37.689Z,6.85
2019-04-29T18:27:11.854Z,5.37
2019-04-29T18:29:41.779Z,5.30
2019-04-29T18:32:09.331Z,7.03
2019-04-29T18:34:37.658Z,8.08
2019-04-29T18:37:06.436Z,6.78
2019-04-29T18:39:34.740Z,6.35
2019-04-29T18:42:03.324Z,5.67
2019-04-29T18:44:31.930Z,5.35
2019-04-29T18:46:59.617Z,5.70
2019-04-29T18:49:27.477Z,5.60
2019-04-29T18:51:57.932Z,6.10
2019-04-29T18:54:26.637Z,5.67
2019-04-29T18:56:55.802Z,5.58
2019-04-29T18:59:33.328Z,4.78
2019-04-29T19:01:55.060Z,4.95
2019-04-29T19:04:29.121Z,5.12
2019-04-29T19:07:02.160Z,4.83
2019-04-29T19:09:32.197Z,5.25
2019-04-29T19:11:57.444Z,4.90
2019-04-29T19:14:28.172Z,4.75
2019-04-29T19:17:00.167Z,5.87
2019-04-29T19:19:25.335Z,4.53
2019-04-29T19:22:00.766Z,5.42
2019-04-29T19:24:31.557Z,5.05
2019-04-29T19:27:00.864Z,4.75
2019-04-29T19:29:38.895Z,4.92
2019-04-29T19:32:05.551Z,5.42
2019-04-29T19:34:42.194Z,4.92
2019-04-29T19:37:05.153Z,4.65
2019-04-29T19:39:34.950Z,4.60
2019-04-29T19:42:03.085Z,4.62
2019-04-29T19:44:33.276Z,6.05
2019-04-29T19:47:01.272Z,5.20
2019-04-29T19:49:29.238Z,5.40
2019-04-29T19:51:56.858Z,5.87
2019-04-29T19:54:28.457Z,4.95
2019-04-29T19:57:02.925Z,4.10
2019-04-29T19:59:26.161Z,4.58
2019-04-29T20:02:02.079Z,5.28
2019-04-29T20:04:39.074Z,4.90
2019-04-29T20:07:10.192Z,5.80
2019-04-29T20:09:38.942Z,5.72
2019-04-29T20:12:12.893Z,5.12
2019-04-29T20:14:38.566Z,6.30
2019-04-29T20:17:27.537Z,4.92
2019-04-29T20:20:21.496Z,4.78
2019-04-29T20:22:51.288Z,5.37
2019-04-29T20:25:29.752Z,5.45
2019-04-29T20:28:04.762Z,4.47
2019-04-29T20:30:21.561Z,4.55
2019-04-29T20:32:50.029Z,5.30
2019-04-29T20:35:19.285Z,6.00
2019-04-29T20:37:52.190Z,4.17
2019-04-29T20:40:16.526Z,4.45
2019-04-29T20:42:45.315Z,5.20
2019-04-29T20:45:15.198Z,4.50
2019-04-29T20:47:43.064Z,4.40
2019-04-29T20:50:13.983Z,4.53
2019-04-29T20:53:05.732Z,4.42
2019-04-29T20:55:36.577Z,3.72
2019-04-29T20:58:05.738Z,4.22
2019-04-29T21:00:35.253Z,4.08
2019-04-29T21:03:03.972Z,4.35
2019-04-29T21:05:45.225Z,5.17
2019-04-29T21:08:03.648Z,4.50
2019-04-29T21:10:32.730Z,3.17
2019-04-29T21:13:34.740Z,4.15
2019-04-29T21:16:30.988Z,4.35
2019-04-29T21:19:08.518Z,4.72
2019-04-29T21:21:36.801Z,4.35
2019-04-29T21:24:06.450Z,4.03
2019-04-29T21:26:33.147Z,4.03
2019-04-29T21:29:00.720Z,5.00
2019-04-29T21:31:28.160Z,4.33
2019-04-29T21:33:58.909Z,5.75
2019-04-29T21:36:45.334Z,4.78
2019-04-29T21:39:37.902Z,5.28
2019-04-29T21:42:35.452Z,6.17
2019-04-29T21:45:08.333Z,5.78
2019-04-29T21:47:42.655Z,6.30
2019-04-29T21:50:02.684Z,5.90
2019-04-29T21:52:30.076Z,5.85
2019-04-29T21:54:57.553Z,6.17
2019-04-29T21:57:25.693Z,5.90
2019-04-29T21:59:53.266Z,6.20
2019-04-29T22:02:20.799Z,6.15
2019-04-29T22:04:49.063Z,5.35
2019-04-29T22:07:39.797Z,5.72
2019-04-29T22:10:05.640Z,6.03
2019-04-29T22:12:33.283Z,5.00
2019-04-29T22:15:00.840Z,5.70
2019-04-29T22:17:32.973Z,5.97
2019-04-29T22:20:04.194Z,5.97
2019-04-29T22:22:30.701Z,6.30
2019-04-29T22:24:57.669Z,5.87
2019-04-29T22:27:26.279Z,6.05
2019-04-29T22:29:55.532Z,5.70
2019-04-29T22:32:23.066Z,6.10
2019-04-29T22:34:56.113Z,5.00
2019-04-29T22:37:20.846Z,6.30
2019-04-29T22:39:49.386Z,7.12
2019-04-29T22:42:27.848Z,8.55
2019-04-29T22:44:57.353Z,8.88
2019-04-29T22:47:25.554Z,9.33
2019-04-29T22:49:53.419Z,10.08
2019-04-29T22:52:20.774Z,10.45
2019-04-29T22:54:48.184Z,8.48
2019-04-29T22:57:15.674Z,8.53
2019-04-29T22:59:44.926Z,8.28
2019-04-29T23:02:12.578Z,7.35
2019-04-29T23:04:40.054Z,7.65
2019-04-29T23:07:07.402Z,7.08
2019-04-29T23:09:36.605Z,7.53
2019-04-29T23:12:05.449Z,8.33
2019-04-29T23:14:33.039Z,9.70
2019-04-29T23:17:00.433Z,8.30
2019-04-29T23:19:27.763Z,7.72
2019-04-29T23:22:25.904Z,7.55
2019-04-29T23:24:55.776Z,7.90
2019-04-29T23:27:23.374Z,8.15
2019-04-29T23:29:50.790Z,7.55
2019-04-29T23:32:18.203Z,8.00
2019-04-29T23:34:45.640Z,7.15
2019-04-29T23:37:13.065Z,7.53
2019-04-29T23:39:40.398Z,8.25
2019-04-29T23:42:12.100Z,6.90
2019-04-29T23:44:37.932Z,7.47
2019-04-29T23:47:10.372Z,7.37
2019-04-29T23:49:42.328Z,8.40
2019-04-29T23:52:06.730Z,8.88
2019-04-29T23:54:44.214Z,7.83
2019-04-29T23:57:27.287Z,8.00
